sensor_id;sensor_type;location;lat;lon;timestamp;pressure;altitude;pressure_sealevel;temperature;humidity
49194;BME280;35029;50.804;12.866;2023-03-18T00:02:18;97231.00;;;7.59;55.66
49194;BME280;35029;50.804;12.866;2023-03-18T00:04:44;97217.94;;;7.51;55.53
49194;BME280;35029;50.804;12.866;2023-03-18T00:07:10;97213.06;;;7.48;55.94
49194;BME280;35029;50.804;12.866;2023-03-18T00:09:36;97227.50;;;7.52;56.33
49194;BME280;35029;50.804;12.866;2023-03-18T00:12:02;97230.31;;;7.50;56.76
49194;BME280;35029;50.804;12.866;2023-03-18T00:14:28;97226.25;;;7.48;56.34
49194;BME280;35029;50.804;12.866;2023-03-18T00:16:54;97225.97;;;7.42;56.28
49194;BME280;35029;50.804;12.866;2023-03-18T00:19:20;97225.53;;;7.39;56.37
49194;BME280;35029;50.804;12.866;2023-03-18T00:21:48;97226.97;;;7.41;56.37
49194;BME280;35029;50.804;12.866;2023-03-18T00:24:13;97230.44;;;7.42;56.25
49194;BME280;35029;50.804;12.866;2023-03-18T00:26:39;97222.72;;;7.40;56.63
49194;BME280;35029;50.804;12.866;2023-03-18T00:29:06;97226.09;;;7.34;56.67
49194;BME280;35029;50.804;12.866;2023-03-18T00:31:35;97216.75;;;7.32;56.48
49194;BME280;35029;50.804;12.866;2023-03-18T00:34:03;97220.56;;;7.29;56.00
49194;BME280;35029;50.804;12.866;2023-03-18T00:36:29;97223.78;;;7.24;56.96
49194;BME280;35029;50.804;12.866;2023-03-18T00:38:56;97218.88;;;7.21;56.70
49194;BME280;35029;50.804;12.866;2023-03-18T00:41:26;97221.69;;;7.20;56.74
49194;BME280;35029;50.804;12.866;2023-03-18T00:43:54;97215.41;;;7.21;56.40
49194;BME280;35029;50.804;12.866;2023-03-18T00:46:45;97199.53;;;7.14;56.53
49194;BME280;35029;50.804;12.866;2023-03-18T00:49:11;97210.13;;;7.21;56.55
49194;BME280;35029;50.804;12.866;2023-03-18T00:51:37;97214.59;;;7.20;57.35
49194;BME280;35029;50.804;12.866;2023-03-18T00:54:08;97215.41;;;7.21;56.88
49194;BME280;35029;50.804;12.866;2023-03-18T00:56:36;97210.97;;;7.21;56.72
49194;BME280;35029;50.804;12.866;2023-03-18T00:59:06;97216.41;;;7.20;56.93
49194;BME280;35029;50.804;12.866;2023-03-18T01:01:33;97219.31;;;7.25;57.21
49194;BME280;35029;50.804;12.866;2023-03-18T01:04:00;97212.97;;;7.19;56.88
49194;BME280;35029;50.804;12.866;2023-03-18T01:06:29;97216.41;;;7.20;56.73
49194;BME280;35029;50.804;12.866;2023-03-18T01:08:57;97219.81;;;7.14;57.78
49194;BME280;35029;50.804;12.866;2023-03-18T01:11:25;97214.25;;;7.08;58.26
49194;BME280;35029;50.804;12.866;2023-03-18T01:13:51;97209.31;;;6.99;59.29
49194;BME280;35029;50.804;12.866;2023-03-18T01:16:19;97213.69;;;6.91;60.79
49194;BME280;35029;50.804;12.866;2023-03-18T01:18:47;97212.53;;;6.79;60.98
49194;BME280;35029;50.804;12.866;2023-03-18T01:21:13;97223.59;;;6.74;61.00
49194;BME280;35029;50.804;12.866;2023-03-18T01:23:47;97227.16;;;6.67;61.85
49194;BME280;35029;50.804;12.866;2023-03-18T01:26:18;97220.97;;;6.59;62.00
49194;BME280;35029;50.804;12.866;2023-03-18T01:28:45;97223.28;;;6.48;62.85
49194;BME280;35029;50.804;12.866;2023-03-18T01:31:12;97232.88;;;6.40;63.73
49194;BME280;35029;50.804;12.866;2023-03-18T01:33:39;97218.34;;;6.30;65.30
49194;BME280;35029;50.804;12.866;2023-03-18T01:36:06;97209.25;;;6.17;65.50
49194;BME280;35029;50.804;12.866;2023-03-18T01:38:33;97225.53;;;6.21;66.41
49194;BME280;35029;50.804;12.866;2023-03-18T01:41:08;97225.78;;;6.11;66.81
49194;BME280;35029;50.804;12.866;2023-03-18T01:43:37;97228.13;;;6.06;67.04
49194;BME280;35029;50.804;12.866;2023-03-18T01:46:33;97229.66;;;6.00;66.73
49194;BME280;35029;50.804;12.866;2023-03-18T01:49:06;97233.34;;;5.91;66.65
49194;BME280;35029;50.804;12.866;2023-03-18T01:51:37;97208.34;;;5.72;67.45
49194;BME280;35029;50.804;12.866;2023-03-18T01:54:07;97230.66;;;5.76;69.30
49194;BME280;35029;50.804;12.866;2023-03-18T01:56:34;97238.72;;;5.74;69.67
49194;BME280;35029;50.804;12.866;2023-03-18T01:59:02;97241.53;;;5.73;70.44
49194;BME280;35029;50.804;12.866;2023-03-18T02:01:42;97235.44;;;5.72;71.03
49194;BME280;35029;50.804;12.866;2023-03-18T02:04:12;97245.63;;;5.75;70.99
49194;BME280;35029;50.804;12.866;2023-03-18T02:06:40;97248.91;;;5.78;70.94
49194;BME280;35029;50.804;12.866;2023-03-18T02:09:07;97252.34;;;5.78;71.85
49194;BME280;35029;50.804;12.866;2023-03-18T02:11:36;97232.19;;;5.70;71.22
49194;BME280;35029;50.804;12.866;2023-03-18T02:14:04;97245.09;;;5.80;70.95
49194;BME280;35029;50.804;12.866;2023-03-18T02:16:38;97247.25;;;5.76;72.12
49194;BME280;35029;50.804;12.866;2023-03-18T02:19:15;97242.53;;;5.72;71.96
49194;BME280;35029;50.804;12.866;2023-03-18T02:24:30;97243.19;;;5.89;71.22
49194;BME280;35029;50.804;12.866;2023-03-18T02:27:22;97251.19;;;5.96;70.18
49194;BME280;35029;50.804;12.866;2023-03-18T02:29:57;97239.88;;;5.95;70.05
49194;BME280;35029;50.804;12.866;2023-03-18T02:32:29;97247.25;;;6.00;69.77
49194;BME280;35029;50.804;12.866;2023-03-18T02:35:00;97244.28;;;6.03;68.99
49194;BME280;35029;50.804;12.866;2023-03-18T02:37:28;97236.84;;;6.06;68.79
49194;BME280;35029;50.804;12.866;2023-03-18T02:40:11;97249.81;;;6.08;68.71
49194;BME280;35029;50.804;12.866;2023-03-18T02:42:36;97253.91;;;6.11;68.90
49194;BME280;35029;50.804;12.866;2023-03-18T02:45:07;97237.25;;;5.95;69.34
49194;BME280;35029;50.804;12.866;2023-03-18T02:47:47;97273.03;;;6.04;69.40
49194;BME280;35029;50.804;12.866;2023-03-18T02:50:14;97265.84;;;5.98;70.68
49194;BME280;35029;50.804;12.866;2023-03-18T02:52:40;97239.03;;;5.80;70.67
49194;BME280;35029;50.804;12.866;2023-03-18T02:55:06;97267.72;;;5.89;70.30
49194;BME280;35029;50.804;12.866;2023-03-18T02:57:34;97263.97;;;5.84;70.13
49194;BME280;35029;50.804;12.866;2023-03-18T03:00:00;97255.03;;;5.70;70.57
49194;BME280;35029;50.804;12.866;2023-03-18T03:02:26;97268.16;;;5.70;70.72
49194;BME280;35029;50.804;12.866;2023-03-18T03:04:51;97276.59;;;5.65;71.09
49194;BME280;35029;50.804;12.866;2023-03-18T03:07:18;97277.47;;;5.57;71.50
49194;BME280;35029;50.804;12.866;2023-03-18T03:09:50;97280.09;;;5.57;71.00
49194;BME280;35029;50.804;12.866;2023-03-18T03:12:18;97281.44;;;5.53;70.38
49194;BME280;35029;50.804;12.866;2023-03-18T03:14:49;97284.25;;;5.52;71.17
49194;BME280;35029;50.804;12.866;2023-03-18T03:17:16;97274.50;;;5.37;71.06
49194;BME280;35029;50.804;12.866;2023-03-18T03:19:43;97276.78;;;5.40;70.90
49194;BME280;35029;50.804;12.866;2023-03-18T03:22:10;97285.00;;;5.37;71.34
49194;BME280;35029;50.804;12.866;2023-03-18T03:24:37;97290.59;;;5.34;71.59
49194;BME280;35029;50.804;12.866;2023-03-18T03:27:04;97302.63;;;5.29;72.29
49194;BME280;35029;50.804;12.866;2023-03-18T03:29:32;97287.41;;;5.16;73.00
49194;BME280;35029;50.804;12.866;2023-03-18T03:31:57;97301.19;;;5.18;73.26
49194;BME280;35029;50.804;12.866;2023-03-18T03:34:23;97296.81;;;5.10;73.49
49194;BME280;35029;50.804;12.866;2023-03-18T03:36:51;97294.25;;;4.94;72.78
49194;BME280;35029;50.804;12.866;2023-03-18T03:39:17;97315.91;;;4.96;73.88
49194;BME280;35029;50.804;12.866;2023-03-18T03:41:43;97297.25;;;4.82;75.09
49194;BME280;35029;50.804;12.866;2023-03-18T03:44:10;97313.31;;;4.87;75.16
49194;BME280;35029;50.804;12.866;2023-03-18T03:46:36;97278.59;;;4.61;74.97
49194;BME280;35029;50.804;12.866;2023-03-18T03:49:04;97313.97;;;4.81;75.83
49194;BME280;35029;50.804;12.866;2023-03-18T03:51:31;97302.34;;;4.76;75.99
49194;BME280;35029;50.804;12.866;2023-03-18T03:53:57;97318.59;;;4.79;75.61
49194;BME280;35029;50.804;12.866;2023-03-18T03:56:23;97317.28;;;4.75;75.92
49194;BME280;35029;50.804;12.866;2023-03-18T03:58:49;97319.09;;;4.74;76.55
49194;BME280;35029;50.804;12.866;2023-03-18T04:01:16;97316.81;;;4.71;76.02
49194;BME280;35029;50.804;12.866;2023-03-18T04:03:58;97316.97;;;4.70;76.11
49194;BME280;35029;50.804;12.866;2023-03-18T04:06:30;97312.69;;;4.69;76.40
49194;BME280;35029;50.804;12.866;2023-03-18T04:09:00;97315.19;;;4.70;76.37
49194;BME280;35029;50.804;12.866;2023-03-18T04:11:35;97326.00;;;4.67;76.12
49194;BME280;35029;50.804;12.866;2023-03-18T04:14:03;97329.47;;;4.68;76.85
49194;BME280;35029;50.804;12.866;2023-03-18T04:16:28;97329.63;;;4.66;77.10
49194;BME280;35029;50.804;12.866;2023-03-18T04:18:54;97329.63;;;4.66;77.62
49194;BME280;35029;50.804;12.866;2023-03-18T04:21:22;97325.84;;;4.61;77.12
49194;BME280;35029;50.804;12.866;2023-03-18T04:23:51;97332.44;;;4.48;75.94
49194;BME280;35029;50.804;12.866;2023-03-18T04:26:17;97337.84;;;4.55;75.99
49194;BME280;35029;50.804;12.866;2023-03-18T04:28:43;97338.03;;;4.45;76.78
49194;BME280;35029;50.804;12.866;2023-03-18T04:31:12;97330.16;;;4.45;77.35
49194;BME280;35029;50.804;12.866;2023-03-18T04:33:39;97331.63;;;4.48;76.79
49194;BME280;35029;50.804;12.866;2023-03-18T04:36:06;97331.31;;;4.43;77.10
49194;BME280;35029;50.804;12.866;2023-03-18T04:38:32;97330.66;;;4.40;77.12
49194;BME280;35029;50.804;12.866;2023-03-18T04:40:59;97331.97;;;4.36;77.04
49194;BME280;35029;50.804;12.866;2023-03-18T04:43:25;97333.44;;;4.39;76.83
49194;BME280;35029;50.804;12.866;2023-03-18T04:45:51;97329.84;;;4.32;76.52
49194;BME280;35029;50.804;12.866;2023-03-18T04:48:17;97349.19;;;4.47;75.42
49194;BME280;35029;50.804;12.866;2023-03-18T04:50:44;97341.63;;;4.44;74.11
49194;BME280;35029;50.804;12.866;2023-03-18T04:53:15;97342.63;;;4.51;74.02
49194;BME280;35029;50.804;12.866;2023-03-18T04:55:41;97329.50;;;4.51;74.53
49194;BME280;35029;50.804;12.866;2023-03-18T04:58:10;97328.34;;;4.37;75.30
49194;BME280;35029;50.804;12.866;2023-03-18T05:00:41;97347.88;;;4.51;75.21
49194;BME280;35029;50.804;12.866;2023-03-18T05:03:20;97346.22;;;4.50;75.60
49194;BME280;35029;50.804;12.866;2023-03-18T05:05:46;97316.72;;;4.32;75.21
49194;BME280;35029;50.804;12.866;2023-03-18T05:08:17;97334.09;;;4.49;75.25
49194;BME280;35029;50.804;12.866;2023-03-18T05:10:43;97346.06;;;4.52;75.19
49194;BME280;35029;50.804;12.866;2023-03-18T05:13:12;97343.94;;;4.55;75.27
49194;BME280;35029;50.804;12.866;2023-03-18T05:15:37;97344.25;;;4.52;74.29
49194;BME280;35029;50.804;12.866;2023-03-18T05:18:03;97345.22;;;4.60;74.42
49194;BME280;35029;50.804;12.866;2023-03-18T05:20:30;97344.88;;;4.63;74.44
49194;BME280;35029;50.804;12.866;2023-03-18T05:22:56;97355.53;;;4.69;74.61
49194;BME280;35029;50.804;12.866;2023-03-18T05:25:49;97356.34;;;4.70;75.03
49194;BME280;35029;50.804;12.866;2023-03-18T05:28:18;97354.56;;;4.70;75.21
49194;BME280;35029;50.804;12.866;2023-03-18T05:30:52;97350.47;;;4.68;76.32
49194;BME280;35029;50.804;12.866;2023-03-18T05:33:18;97340.13;;;4.58;77.21
49194;BME280;35029;50.804;12.866;2023-03-18T05:35:51;97332.75;;;4.53;77.79
49194;BME280;35029;50.804;12.866;2023-03-18T05:38:21;97353.25;;;4.66;78.28
49194;BME280;35029;50.804;12.866;2023-03-18T05:40:47;97352.09;;;4.69;78.17
49194;BME280;35029;50.804;12.866;2023-03-18T05:43:25;97336.84;;;4.64;77.96
49194;BME280;35029;50.804;12.866;2023-03-18T05:45:55;97350.75;;;4.73;78.56
49194;BME280;35029;50.804;12.866;2023-03-18T05:48:31;97363.88;;;4.73;78.95
49194;BME280;35029;50.804;12.866;2023-03-18T05:51:02;97333.91;;;4.59;80.01
49194;BME280;35029;50.804;12.866;2023-03-18T05:53:30;97362.09;;;4.73;80.61
49194;BME280;35029;50.804;12.866;2023-03-18T05:56:08;97340.94;;;4.67;80.96
49194;BME280;35029;50.804;12.866;2023-03-18T05:58:35;97360.44;;;4.81;81.19
49194;BME280;35029;50.804;12.866;2023-03-18T06:01:20;97359.28;;;4.83;81.25
49194;BME280;35029;50.804;12.866;2023-03-18T06:03:48;97363.56;;;4.84;81.05
49194;BME280;35029;50.804;12.866;2023-03-18T06:06:15;97345.81;;;4.86;81.24
49194;BME280;35029;50.804;12.866;2023-03-18T06:08:43;97353.16;;;4.99;80.79
49194;BME280;35029;50.804;12.866;2023-03-18T06:11:09;97350.53;;;4.99;81.54
49194;BME280;35029;50.804;12.866;2023-03-18T06:13:36;97360.19;;;5.07;81.71
49194;BME280;35029;50.804;12.866;2023-03-18T06:16:03;97353.47;;;5.04;81.82
49194;BME280;35029;50.804;12.866;2023-03-18T06:18:31;97365.38;;;5.23;81.23
49194;BME280;35029;50.804;12.866;2023-03-18T06:21:08;97360.91;;;5.32;81.36
49194;BME280;35029;50.804;12.866;2023-03-18T06:23:50;97363.34;;;5.42;81.49
49194;BME280;35029;50.804;12.866;2023-03-18T06:26:16;97364.28;;;5.49;82.02
49194;BME280;35029;50.804;12.866;2023-03-18T06:28:45;97363.78;;;5.54;82.04
49194;BME280;35029;50.804;12.866;2023-03-18T06:31:14;97360.25;;;5.62;81.96
49194;BME280;35029;50.804;12.866;2023-03-18T06:33:40;97355.63;;;5.72;81.49
49194;BME280;35029;50.804;12.866;2023-03-18T06:36:08;97346.03;;;5.79;80.89
49194;BME280;35029;50.804;12.866;2023-03-18T06:38:39;97355.78;;;6.02;80.48
49194;BME280;35029;50.804;12.866;2023-03-18T06:41:05;97357.81;;;6.15;79.74
49194;BME280;35029;50.804;12.866;2023-03-18T06:43:37;97362.94;;;6.31;78.88
49194;BME280;35029;50.804;12.866;2023-03-18T06:46:04;97364.00;;;6.45;78.49
49194;BME280;35029;50.804;12.866;2023-03-18T06:48:30;97361.03;;;6.63;76.96
49194;BME280;35029;50.804;12.866;2023-03-18T06:50:58;97341.78;;;6.63;76.70
49194;BME280;35029;50.804;12.866;2023-03-18T06:53:29;97366.50;;;6.91;76.93
49194;BME280;35029;50.804;12.866;2023-03-18T06:55:56;97362.31;;;6.97;76.53
49194;BME280;35029;50.804;12.866;2023-03-18T06:58:24;97351.69;;;7.05;76.67
49194;BME280;35029;50.804;12.866;2023-03-18T07:00:59;97362.41;;;7.19;75.81
49194;BME280;35029;50.804;12.866;2023-03-18T07:03:34;97363.13;;;7.27;74.61
49194;BME280;35029;50.804;12.866;2023-03-18T07:06:00;97366.94;;;7.40;72.75
49194;BME280;35029;50.804;12.866;2023-03-18T07:08:29;97345.09;;;7.46;72.51
49194;BME280;35029;50.804;12.866;2023-03-18T07:10:56;97363.84;;;7.73;71.68
49194;BME280;35029;50.804;12.866;2023-03-18T07:13:23;97361.34;;;7.86;71.74
49194;BME280;35029;50.804;12.866;2023-03-18T07:15:50;97361.03;;;7.96;71.80
49194;BME280;35029;50.804;12.866;2023-03-18T07:18:17;97372.72;;;8.08;71.46
49194;BME280;35029;50.804;12.866;2023-03-18T07:20:45;97370.03;;;8.23;72.57
49194;BME280;35029;50.804;12.866;2023-03-18T07:23:10;97361.16;;;8.31;73.14
49194;BME280;35029;50.804;12.866;2023-03-18T07:25:36;97338.19;;;8.25;73.69
49194;BME280;35029;50.804;12.866;2023-03-18T07:28:09;97359.34;;;8.53;72.73
49194;BME280;35029;50.804;12.866;2023-03-18T07:30:36;97367.50;;;8.58;72.66
49194;BME280;35029;50.804;12.866;2023-03-18T07:33:03;97367.16;;;8.68;72.27
49194;BME280;35029;50.804;12.866;2023-03-18T07:35:29;97368.66;;;8.77;72.68
49194;BME280;35029;50.804;12.866;2023-03-18T07:37:57;97360.53;;;8.79;72.25
49194;BME280;35029;50.804;12.866;2023-03-18T07:40:23;97360.22;;;8.95;71.91
49194;BME280;35029;50.804;12.866;2023-03-18T07:42:49;97352.94;;;8.98;71.49
49194;BME280;35029;50.804;12.866;2023-03-18T07:45:18;97358.31;;;9.11;71.38
49194;BME280;35029;50.804;12.866;2023-03-18T07:47:44;97373.69;;;9.36;70.46
49194;BME280;35029;50.804;12.866;2023-03-18T07:50:10;97379.66;;;9.51;70.12
49194;BME280;35029;50.804;12.866;2023-03-18T07:52:36;97370.94;;;9.57;70.91
49194;BME280;35029;50.804;12.866;2023-03-18T07:55:02;97394.00;;;9.77;71.17
49194;BME280;35029;50.804;12.866;2023-03-18T07:57:28;97381.59;;;9.84;70.23
49194;BME280;35029;50.804;12.866;2023-03-18T07:59:54;97369.75;;;9.80;69.04
49194;BME280;35029;50.804;12.866;2023-03-18T08:02:20;97360.84;;;9.88;67.86
49194;BME280;35029;50.804;12.866;2023-03-18T08:04:46;97383.50;;;10.10;66.94
49194;BME280;35029;50.804;12.866;2023-03-18T08:07:11;97388.78;;;10.24;66.73
49194;BME280;35029;50.804;12.866;2023-03-18T08:09:37;97393.91;;;10.32;66.17
49194;BME280;35029;50.804;12.866;2023-03-18T08:12:03;97406.19;;;10.40;64.23
49194;BME280;35029;50.804;12.866;2023-03-18T08:14:29;97381.72;;;10.38;63.28
49194;BME280;35029;50.804;12.866;2023-03-18T08:16:55;97396.59;;;10.52;63.06
49194;BME280;35029;50.804;12.866;2023-03-18T08:19:21;97391.09;;;10.60;63.02
49194;BME280;35029;50.804;12.866;2023-03-18T08:21:47;97387.03;;;10.64;63.04
49194;BME280;35029;50.804;12.866;2023-03-18T08:24:13;97377.63;;;10.62;62.65
49194;BME280;35029;50.804;12.866;2023-03-18T08:26:39;97387.81;;;10.85;62.03
49194;BME280;35029;50.804;12.866;2023-03-18T08:29:04;97394.75;;;10.99;61.53
49194;BME280;35029;50.804;12.866;2023-03-18T08:31:31;97377.19;;;10.98;61.60
49194;BME280;35029;50.804;12.866;2023-03-18T08:33:57;97402.88;;;11.25;61.97
49194;BME280;35029;50.804;12.866;2023-03-18T08:36:24;97393.06;;;11.32;63.32
49194;BME280;35029;50.804;12.866;2023-03-18T08:38:51;97403.56;;;11.59;63.06
49194;BME280;35029;50.804;12.866;2023-03-18T08:41:17;97400.00;;;11.85;61.74
49194;BME280;35029;50.804;12.866;2023-03-18T08:43:43;97406.28;;;11.97;62.63
49194;BME280;35029;50.804;12.866;2023-03-18T08:46:09;97406.59;;;12.14;62.91
49194;BME280;35029;50.804;12.866;2023-03-18T08:48:34;97402.28;;;12.20;61.26
49194;BME280;35029;50.804;12.866;2023-03-18T08:51:04;97393.44;;;12.26;61.22
49194;BME280;35029;50.804;12.866;2023-03-18T08:53:32;97406.84;;;12.45;60.27
49194;BME280;35029;50.804;12.866;2023-03-18T08:55:58;97408.56;;;12.58;59.64
49194;BME280;35029;50.804;12.866;2023-03-18T08:58:24;97400.50;;;12.71;59.61
49194;BME280;35029;50.804;12.866;2023-03-18T09:00:53;97402.81;;;12.86;58.51
49194;BME280;35029;50.804;12.866;2023-03-18T09:03:19;97403.91;;;13.04;58.04
49194;BME280;35029;50.804;12.866;2023-03-18T09:05:50;97407.47;;;13.16;58.92
49194;BME280;35029;50.804;12.866;2023-03-18T09:08:16;97410.47;;;13.19;59.06
49194;BME280;35029;50.804;12.866;2023-03-18T09:10:44;97403.09;;;13.22;59.02
49194;BME280;35029;50.804;12.866;2023-03-18T09:13:11;97382.38;;;13.05;58.72
49194;BME280;35029;50.804;12.866;2023-03-18T09:15:37;97414.16;;;13.44;58.42
49194;BME280;35029;50.804;12.866;2023-03-18T09:18:03;97420.09;;;13.46;57.38
49194;BME280;35029;50.804;12.866;2023-03-18T09:20:29;97405.94;;;13.45;56.70
49194;BME280;35029;50.804;12.866;2023-03-18T09:22:57;97407.78;;;13.45;56.70
49194;BME280;35029;50.804;12.866;2023-03-18T09:25:22;97414.00;;;13.39;54.84
49194;BME280;35029;50.804;12.866;2023-03-18T09:27:48;97409.28;;;13.41;54.95
49194;BME280;35029;50.804;12.866;2023-03-18T09:30:14;97411.50;;;13.62;55.84
49194;BME280;35029;50.804;12.866;2023-03-18T09:32:40;97393.72;;;13.56;55.39
49194;BME280;35029;50.804;12.866;2023-03-18T09:35:06;97406.00;;;13.76;55.09
49194;BME280;35029;50.804;12.866;2023-03-18T09:37:34;97408.78;;;13.99;56.07
49194;BME280;35029;50.804;12.866;2023-03-18T09:40:00;97410.97;;;14.02;55.34
49194;BME280;35029;50.804;12.866;2023-03-18T09:42:40;97415.75;;;14.00;55.43
49194;BME280;35029;50.804;12.866;2023-03-18T09:45:16;97415.84;;;14.06;54.58
49194;BME280;35029;50.804;12.866;2023-03-18T09:55:46;97416.13;;;14.16;55.70
49194;BME280;35029;50.804;12.866;2023-03-18T10:00:56;97425.53;;;14.18;57.43
49194;BME280;35029;50.804;12.866;2023-03-18T10:03:31;97422.38;;;14.10;57.43
49194;BME280;35029;50.804;12.866;2023-03-18T10:08:44;97421.50;;;13.97;58.45
49194;BME280;35029;50.804;12.866;2023-03-18T10:14:14;97426.25;;;13.95;58.09
49194;BME280;35029;50.804;12.866;2023-03-18T10:17:12;97433.88;;;13.92;57.90
49194;BME280;35029;50.804;12.866;2023-03-18T10:20:00;97436.91;;;13.95;57.51
49194;BME280;35029;50.804;12.866;2023-03-18T10:22:50;97431.09;;;13.86;57.98
49194;BME280;35029;50.804;12.866;2023-03-18T10:25:30;97443.88;;;13.96;59.38
49194;BME280;35029;50.804;12.866;2023-03-18T10:38:54;97424.84;;;14.53;56.21
49194;BME280;35029;50.804;12.866;2023-03-18T10:41:33;97429.97;;;14.67;55.32
49194;BME280;35029;50.804;12.866;2023-03-18T10:44:20;97424.56;;;14.85;55.97
49194;BME280;35029;50.804;12.866;2023-03-18T10:47:13;97428.63;;;14.88;55.01
49194;BME280;35029;50.804;12.866;2023-03-18T10:49:47;97419.34;;;14.79;54.24
49194;BME280;35029;50.804;12.866;2023-03-18T10:52:18;97420.03;;;14.86;54.85
49194;BME280;35029;50.804;12.866;2023-03-18T10:54:48;97433.84;;;14.95;54.62
49194;BME280;35029;50.804;12.866;2023-03-18T10:57:19;97441.50;;;14.91;53.82
49194;BME280;35029;50.804;12.866;2023-03-18T10:59:49;97439.28;;;14.76;55.14
49194;BME280;35029;50.804;12.866;2023-03-18T11:02:24;97402.16;;;14.75;54.50
49194;BME280;35029;50.804;12.866;2023-03-18T11:04:57;97424.34;;;14.99;54.63
49194;BME280;35029;50.804;12.866;2023-03-18T11:07:25;97420.38;;;14.90;54.72
49194;BME280;35029;50.804;12.866;2023-03-18T11:09:52;97433.16;;;14.99;54.41
49194;BME280;35029;50.804;12.866;2023-03-18T11:12:28;97427.13;;;15.16;54.47
49194;BME280;35029;50.804;12.866;2023-03-18T11:14:56;97419.09;;;15.40;54.78
49194;BME280;35029;50.804;12.866;2023-03-18T11:17:32;97421.53;;;15.53;54.51
49194;BME280;35029;50.804;12.866;2023-03-18T11:22:26;97425.91;;;15.59;53.91
49194;BME280;35029;50.804;12.866;2023-03-18T11:25:13;97420.88;;;15.86;54.40
49194;BME280;35029;50.804;12.866;2023-03-18T11:27:48;97423.53;;;15.98;53.48
49194;BME280;35029;50.804;12.866;2023-03-18T11:30:27;97425.81;;;16.07;53.33
49194;BME280;35029;50.804;12.866;2023-03-18T11:35:51;97419.44;;;16.08;53.88
49194;BME280;35029;50.804;12.866;2023-03-18T11:38:29;97421.66;;;15.99;53.12
49194;BME280;35029;50.804;12.866;2023-03-18T11:43:38;97415.53;;;15.75;53.60
49194;BME280;35029;50.804;12.866;2023-03-18T11:46:06;97419.78;;;15.59;53.98
49194;BME280;35029;50.804;12.866;2023-03-18T11:48:33;97410.97;;;15.46;56.04
49194;BME280;35029;50.804;12.866;2023-03-18T11:53:46;97417.78;;;15.54;55.36
49194;BME280;35029;50.804;12.866;2023-03-18T12:06:19;97413.31;;;15.19;57.58
49194;BME280;35029;50.804;12.866;2023-03-18T12:19:45;97417.38;;;15.10;56.46
49194;BME280;35029;50.804;12.866;2023-03-18T12:22:28;97408.22;;;15.06;56.99
49194;BME280;35029;50.804;12.866;2023-03-18T12:25:11;97402.53;;;15.14;56.97
49194;BME280;35029;50.804;12.866;2023-03-18T12:36:24;97416.88;;;15.36;54.97
49194;BME280;35029;50.804;12.866;2023-03-18T12:44:56;97403.03;;;15.63;54.32
49194;BME280;35029;50.804;12.866;2023-03-18T12:47:43;97391.31;;;15.64;54.65
49194;BME280;35029;50.804;12.866;2023-03-18T12:53:00;97407.56;;;16.32;53.63
49194;BME280;35029;50.804;12.866;2023-03-18T12:55:35;97392.28;;;16.79;51.85
49194;BME280;35029;50.804;12.866;2023-03-18T13:00:41;97397.72;;;17.01;51.43
49194;BME280;35029;50.804;12.866;2023-03-18T13:05:51;97387.81;;;17.01;50.09
49194;BME280;35029;50.804;12.866;2023-03-18T13:14:19;97395.09;;;17.23;48.72
49194;BME280;35029;50.804;12.866;2023-03-18T13:16:47;97391.69;;;17.28;49.30
49194;BME280;35029;50.804;12.866;2023-03-18T13:19:14;97368.66;;;17.10;48.83
49194;BME280;35029;50.804;12.866;2023-03-18T13:21:43;97364.31;;;17.26;49.28
49194;BME280;35029;50.804;12.866;2023-03-18T13:27:25;97380.22;;;17.32;49.59
49194;BME280;35029;50.804;12.866;2023-03-18T13:33:07;97385.41;;;17.39;49.07
49194;BME280;35029;50.804;12.866;2023-03-18T13:41:28;97380.53;;;17.58;49.64
49194;BME280;35029;50.804;12.866;2023-03-18T13:43:59;97378.88;;;17.74;49.38
49194;BME280;35029;50.804;12.866;2023-03-18T13:46:29;97376.09;;;17.91;49.13
49194;BME280;35029;50.804;12.866;2023-03-18T13:48:57;97354.41;;;17.93;49.28
49194;BME280;35029;50.804;12.866;2023-03-18T13:53:52;97365.97;;;17.49;50.12
49194;BME280;35029;50.804;12.866;2023-03-18T13:56:49;97370.69;;;17.42;50.27
49194;BME280;35029;50.804;12.866;2023-03-18T14:04:49;97358.00;;;16.93;49.97
49194;BME280;35029;50.804;12.866;2023-03-18T14:07:19;97355.94;;;16.66;50.30
49194;BME280;35029;50.804;12.866;2023-03-18T14:10:16;97357.91;;;16.70;50.21
49194;BME280;35029;50.804;12.866;2023-03-18T14:12:44;97358.72;;;16.54;49.62
49194;BME280;35029;50.804;12.866;2023-03-18T14:17:43;97354.19;;;17.50;48.12
49194;BME280;35029;50.804;12.866;2023-03-18T14:22:42;97344.66;;;18.08;46.86
49194;BME280;35029;50.804;12.866;2023-03-18T14:25:18;97354.06;;;18.11;47.24
49194;BME280;35029;50.804;12.866;2023-03-18T14:27:52;97350.22;;;18.29;47.18
49194;BME280;35029;50.804;12.866;2023-03-18T14:38:14;97349.75;;;17.61;48.96
49194;BME280;35029;50.804;12.866;2023-03-18T14:40:48;97350.34;;;17.90;47.57
49194;BME280;35029;50.804;12.866;2023-03-18T14:43:21;97349.94;;;17.54;48.49
49194;BME280;35029;50.804;12.866;2023-03-18T14:45:50;97344.09;;;17.35;49.04
49194;BME280;35029;50.804;12.866;2023-03-18T14:48:26;97344.19;;;17.89;48.32
49194;BME280;35029;50.804;12.866;2023-03-18T14:50:55;97336.53;;;18.31;46.68
49194;BME280;35029;50.804;12.866;2023-03-18T15:41:07;97332.28;;;19.10;45.13
49194;BME280;35029;50.804;12.866;2023-03-18T15:43:41;97338.28;;;18.47;47.19
49194;BME280;35029;50.804;12.866;2023-03-18T15:48:49;97336.94;;;17.40;50.81
49194;BME280;35029;50.804;12.866;2023-03-18T15:54:02;97340.53;;;16.90;52.18
49194;BME280;35029;50.804;12.866;2023-03-18T15:56:30;97336.78;;;16.74;52.18
49194;BME280;35029;50.804;12.866;2023-03-18T15:59:01;97328.72;;;16.52;54.68
49194;BME280;35029;50.804;12.866;2023-03-18T16:01:26;97338.78;;;16.45;56.55
49194;BME280;35029;50.804;12.866;2023-03-18T16:03:52;97339.66;;;16.33;58.54
49194;BME280;35029;50.804;12.866;2023-03-18T16:06:19;97336.22;;;16.21;56.81